Time;durP1;ratioP1;P1;durP2;ratioP2;P2;SDS_P1;SDS_P2;PMS_P1;PMS_P2;Temp;Humidity;BMP_temperature;BMP_pressure;BME280_temperature;BME280_humidity;BME280_pressure;Samples;Min_cycle;Max_cycle;Signal;HPM_P1;HPM_P2
2024/03/01 00:00:56;;;;;;;32.03;13.57;;;4.00;99.90;;;;;;4187128;28;20474;-75
2024/03/01 00:02:58;;;;;;;34.50;13.73;;;3.90;99.90;;;;;;4186440;28;20480;-77
2024/03/01 00:04:59;;;;;;;31.73;13.67;;;3.90;99.90;;;;;;4184891;28;20308;-77
2024/03/01 00:07:01;;;;;;;36.43;15.10;;;3.90;99.90;;;;;;4183641;28;20481;-76
2024/03/01 00:09:03;;;;;;;36.90;14.93;;;3.90;99.90;;;;;;4188472;28;20546;-77
2024/03/01 00:11:05;;;;;;;35.67;15.03;;;3.90;99.90;;;;;;4185325;28;20921;-77
2024/03/01 00:13:07;;;;;;;35.10;14.30;;;3.90;99.90;;;;;;4184011;28;20824;-77
2024/03/01 00:15:09;;;;;;;33.10;14.00;;;3.80;99.90;;;;;;4186459;28;21399;-76
2024/03/01 00:17:11;;;;;;;31.67;12.93;;;3.80;99.90;;;;;;4185702;28;20454;-77
2024/03/01 00:19:13;;;;;;;37.67;14.93;;;3.80;99.90;;;;;;4183922;28;20449;-76
2024/03/01 00:21:16;;;;;;;36.07;14.33;;;3.80;99.90;;;;;;4186101;28;20468;-76
2024/03/01 00:23:18;;;;;;;32.30;13.27;;;3.80;99.90;;;;;;4188004;28;20467;-75
2024/03/01 00:25:21;;;;;;;30.40;12.80;;;3.80;99.90;;;;;;4185504;28;20490;-75
2024/03/01 00:27:23;;;;;;;32.67;14.00;;;3.70;99.90;;;;;;4183467;28;20469;-76
2024/03/01 00:29:25;;;;;;;31.50;13.53;;;3.70;99.90;;;;;;4185722;28;20459;-76
2024/03/01 00:31:27;;;;;;;31.17;14.30;;;3.70;99.90;;;;;;4183276;28;20456;-77
2024/03/01 00:33:29;;;;;;;31.87;13.97;;;3.70;99.90;;;;;;4185986;28;20485;-76
2024/03/01 00:35:31;;;;;;;35.10;14.63;;;3.60;99.90;;;;;;4184496;28;20513;-75
2024/03/01 00:37:32;;;;;;;37.30;14.27;;;3.60;99.90;;;;;;4185738;28;20462;-76
2024/03/01 00:39:34;;;;;;;39.97;14.90;;;3.60;99.90;;;;;;4181307;28;20460;-76
2024/03/01 00:41:37;;;;;;;38.87;15.73;;;3.60;99.90;;;;;;4184324;28;20227;-76
2024/03/01 00:43:39;;;;;;;36.40;15.23;;;3.60;99.90;;;;;;4185928;28;20474;-76
2024/03/01 00:45:41;;;;;;;37.40;15.10;;;3.60;99.90;;;;;;4182671;28;20576;-76
2024/03/01 00:47:46;;;;;;;34.87;13.73;;;3.60;99.90;;;;;;4189453;28;20453;-76
2024/03/01 00:49:50;;;;;;;36.77;15.43;;;3.60;99.90;;;;;;4185504;28;21153;-74
2024/03/01 00:51:52;;;;;;;44.17;16.90;;;3.60;99.90;;;;;;4186202;28;21113;-76
2024/03/01 00:53:53;;;;;;;42.07;16.30;;;3.60;99.90;;;;;;4189418;28;20447;-76
2024/03/01 00:55:55;;;;;;;37.70;15.17;;;3.60;99.90;;;;;;4193111;28;21113;-76
2024/03/01 00:57:58;;;;;;;38.67;15.80;;;3.60;99.90;;;;;;4189602;28;20237;-76
2024/03/01 01:00:00;;;;;;;38.43;15.70;;;3.60;99.90;;;;;;4188216;28;20865;-75
2024/03/01 01:02:05;;;;;;;38.77;15.30;;;3.60;99.90;;;;;;4186955;28;20450;-74
2024/03/01 01:04:07;;;;;;;41.73;16.40;;;3.40;99.90;;;;;;4186596;28;20985;-73
2024/03/01 01:06:09;;;;;;;37.30;14.80;;;3.60;99.90;;;;;;4184870;28;20519;-76
2024/03/01 01:08:11;;;;;;;38.60;16.33;;;3.60;99.90;;;;;;4182621;28;20461;-75
2024/03/01 01:10:13;;;;;;;36.40;15.33;;;3.60;99.90;;;;;;4186549;28;20968;-76
2024/03/01 01:12:15;;;;;;;41.07;16.73;;;3.60;99.90;;;;;;4183488;28;20479;-77
2024/03/01 01:14:18;;;;;;;40.47;15.80;;;3.50;99.90;;;;;;4182178;28;21050;-76
2024/03/01 01:16:20;;;;;;;37.70;15.67;;;3.50;99.90;;;;;;4180748;28;20438;-76
2024/03/01 01:18:21;;;;;;;37.67;15.93;;;3.50;99.90;;;;;;4185661;28;20859;-76
2024/03/01 01:20:23;;;;;;;39.97;15.37;;;3.50;99.90;;;;;;4184789;28;20447;-75
2024/03/01 01:22:26;;;;;;;38.93;16.30;;;3.40;99.90;;;;;;4184875;28;20285;-76
2024/03/01 01:24:27;;;;;;;34.27;14.73;;;3.40;99.90;;;;;;4186676;28;20520;-76
2024/03/01 01:26:31;;;;;;;40.40;16.63;;;3.40;99.90;;;;;;4188851;28;20453;-77
2024/03/01 01:28:32;;;;;;;34.50;14.13;;;3.40;99.90;;;;;;4185829;28;20333;-76
2024/03/01 01:30:37;;;;;;;41.93;17.03;;;3.40;99.90;;;;;;4187767;28;20452;-75
2024/03/01 01:32:39;;;;;;;33.33;14.53;;;3.40;99.90;;;;;;4185357;28;20203;-77
2024/03/01 01:34:41;;;;;;;40.33;15.93;;;3.40;99.90;;;;;;4190397;28;20481;-77
2024/03/01 01:36:43;;;;;;;39.70;15.10;;;3.40;99.90;;;;;;4187529;28;20439;-76
2024/03/01 01:38:45;;;;;;;39.77;15.93;;;3.30;99.90;;;;;;4187365;28;20837;-76
2024/03/01 01:40:46;;;;;;;37.50;15.27;;;3.30;99.90;;;;;;4182782;28;20453;-76
2024/03/01 01:42:51;;;;;;;37.10;15.03;;;3.30;99.90;;;;;;4190708;28;21026;-75
2024/03/01 01:44:52;;;;;;;35.37;14.87;;;3.30;99.90;;;;;;4190037;28;20836;-75
2024/03/01 01:46:55;;;;;;;39.43;16.50;;;3.30;99.90;;;;;;4186671;28;20449;-75
2024/03/01 01:48:57;;;;;;;38.73;14.70;;;3.30;99.90;;;;;;4189037;28;20224;-75
2024/03/01 01:50:59;;;;;;;40.77;15.50;;;3.30;99.90;;;;;;4188318;28;21012;-76
2024/03/01 01:53:03;;;;;;;35.63;15.00;;;3.30;99.90;;;;;;4191523;28;20519;-75
2024/03/01 01:55:06;;;;;;;38.83;15.70;;;3.20;99.90;;;;;;4189597;28;20470;-77
2024/03/01 01:57:08;;;;;;;34.53;13.87;;;3.20;99.90;;;;;;4197954;28;20467;-76
2024/03/01 01:59:10;;;;;;;33.07;14.57;;;3.20;99.90;;;;;;4187840;28;20450;-76
2024/03/01 02:01:15;;;;;;;34.60;13.90;;;3.20;99.90;;;;;;4187620;28;20946;-76
2024/03/01 02:03:19;;;;;;;37.27;14.60;;;3.20;99.90;;;;;;4186292;28;20982;-75
2024/03/01 02:05:21;;;;;;;33.30;13.30;;;3.20;99.90;;;;;;4182972;28;20476;-73
2024/03/01 02:07:23;;;;;;;35.77;14.30;;;3.10;99.90;;;;;;4184616;28;20437;-73
2024/03/01 02:09:25;;;;;;;35.23;14.20;;;3.10;99.90;;;;;;4181244;28;20440;-73
2024/03/01 02:11:30;;;;;;;35.57;14.10;;;3.10;99.90;;;;;;4185029;28;21031;-73
2024/03/01 02:13:32;;;;;;;32.00;14.20;;;3.10;99.90;;;;;;4184576;28;20497;-73
2024/03/01 02:15:35;;;;;;;34.23;14.53;;;3.10;99.90;;;;;;4190931;28;20468;-75
2024/03/01 02:17:37;;;;;;;37.97;15.27;;;3.10;99.90;;;;;;4187823;28;20460;-73
2024/03/01 02:19:40;;;;;;;38.73;15.03;;;3.10;99.90;;;;;;4182678;28;20480;-74
2024/03/01 02:21:53;;;;;;;36.10;16.27;;;3.10;99.90;;;;;;4186039;28;20523;-73
2024/03/01 02:23:55;;;;;;;37.07;14.87;;;3.10;99.90;;;;;;4188962;28;20473;-75
2024/03/01 02:25:57;;;;;;;31.90;13.77;;;3.00;99.90;;;;;;4187471;28;20571;-73
2024/03/01 02:27:59;;;;;;;37.87;16.17;;;3.00;99.90;;;;;;4189101;28;20955;-73
2024/03/01 02:30:09;;;;;;;32.50;13.63;;;3.00;99.90;;;;;;4191455;28;20497;-73
2024/03/01 02:32:13;;;;;;;36.27;13.80;;;2.90;99.90;;;;;;4184633;28;20457;-74
2024/03/01 02:34:14;;;;;;;36.90;14.07;;;2.90;99.90;;;;;;4180549;28;20449;-74
2024/03/01 02:36:18;;;;;;;34.17;12.97;;;2.90;99.90;;;;;;4180653;28;20514;-73
2024/03/01 02:38:20;;;;;;;33.10;13.33;;;2.90;99.90;;;;;;4187779;28;20203;-73
2024/03/01 02:40:22;;;;;;;29.40;13.33;;;2.90;99.90;;;;;;4189585;28;20456;-73
2024/03/01 02:42:24;;;;;;;36.40;13.97;;;2.80;99.90;;;;;;4189781;28;20452;-73
2024/03/01 02:44:26;;;;;;;33.73;13.53;;;2.80;99.90;;;;;;4194776;28;20489;-73
2024/03/01 02:46:27;;;;;;;32.93;13.47;;;2.80;99.90;;;;;;4188059;28;20453;-73
2024/03/01 02:48:29;;;;;;;32.23;13.73;;;2.80;99.90;;;;;;4190232;28;20467;-73
2024/03/01 02:50:30;;;;;;;31.90;12.77;;;2.80;99.90;;;;;;4185515;28;20226;-73
2024/03/01 02:52:32;;;;;;;30.97;14.13;;;2.80;99.90;;;;;;4184270;28;20499;-73
2024/03/01 02:54:33;;;;;;;35.40;14.63;;;2.80;99.90;;;;;;4188296;28;20602;-73
2024/03/01 02:56:37;;;;;;;32.67;14.57;;;2.70;99.90;;;;;;4181983;28;20554;-72
2024/03/01 02:58:38;;;;;;;33.23;14.53;;;2.70;99.90;;;;;;4186531;28;20647;-72
2024/03/01 03:00:40;;;;;;;40.90;16.30;;;2.70;99.90;;;;;;4181542;28;20476;-74
2024/03/01 03:02:42;;;;;;;38.03;15.50;;;2.70;99.90;;;;;;4188766;28;20289;-73
2024/03/01 03:04:44;;;;;;;34.73;14.13;;;2.70;99.90;;;;;;4188521;28;20496;-74
2024/03/01 03:06:45;;;;;;;39.17;14.97;;;2.70;99.90;;;;;;4188122;28;20494;-73
2024/03/01 03:08:47;;;;;;;42.53;15.93;;;2.70;99.90;;;;;;4183877;28;20461;-73
2024/03/01 03:10:49;;;;;;;39.47;15.10;;;2.70;99.90;;;;;;4186109;28;20297;-74
2024/03/01 03:12:52;;;;;;;37.90;14.83;;;2.70;99.90;;;;;;4189730;28;20890;-73
2024/03/01 03:14:53;;;;;;;38.83;14.13;;;2.70;99.90;;;;;;4193302;28;20460;-75
2024/03/01 03:16:55;;;;;;;35.23;14.63;;;2.60;99.90;;;;;;4185403;28;20511;-73
2024/03/01 03:18:57;;;;;;;34.40;14.27;;;2.70;99.90;;;;;;4185833;28;20694;-73
2024/03/01 03:20:59;;;;;;;37.67;15.40;;;2.70;99.90;;;;;;4191486;28;20946;-73
2024/03/01 03:23:00;;;;;;;34.80;14.37;;;2.70;99.90;;;;;;4197222;28;20494;-74
2024/03/01 03:25:03;;;;;;;35.87;13.93;;;2.70;99.90;;;;;;4196031;28;21056;-74
2024/03/01 03:27:05;;;;;;;37.50;14.60;;;2.60;99.90;;;;;;4184301;28;21129;-73
2024/03/01 03:29:08;;;;;;;35.03;14.60;;;2.60;99.90;;;;;;4187499;28;20494;-72
2024/03/01 03:31:11;;;;;;;33.83;13.93;;;2.60;99.90;;;;;;4189348;28;21118;-74
2024/03/01 03:33:13;;;;;;;35.63;13.47;;;2.60;99.90;;;;;;4189537;28;20444;-74
2024/03/01 03:35:15;;;;;;;34.70;13.80;;;2.60;99.90;;;;;;4184431;28;20465;-74
2024/03/01 03:37:17;;;;;;;37.27;15.27;;;2.60;99.90;;;;;;4192072;28;21059;-74
2024/03/01 03:39:17;;;;;;;36.37;15.27;;;2.50;99.90;;;;;;4184512;28;20444;-72
2024/03/01 03:41:19;;;;;;;33.03;14.03;;;2.50;99.90;;;;;;4185101;28;20960;-73
2024/03/01 03:43:21;;;;;;;37.00;15.20;;;2.50;99.90;;;;;;4184710;28;20241;-73
2024/03/01 03:45:25;;;;;;;39.70;15.50;;;2.50;99.90;;;;;;4188156;28;20933;-73
2024/03/01 03:47:27;;;;;;;38.73;14.97;;;2.50;99.90;;;;;;4182579;28;20454;-73
2024/03/01 03:49:30;;;;;;;34.13;13.73;;;2.50;99.90;;;;;;4184590;28;20552;-74
2024/03/01 03:51:32;;;;;;;37.87;14.27;;;2.50;99.90;;;;;;4184033;28;20546;-73
2024/03/01 03:53:34;;;;;;;37.47;14.20;;;2.40;99.90;;;;;;4185893;28;20542;-73
2024/03/01 03:55:36;;;;;;;37.87;14.67;;;2.50;99.90;;;;;;4188578;28;20472;-73
2024/03/01 03:57:38;;;;;;;34.27;13.83;;;2.50;99.90;;;;;;4187868;28;20535;-72
2024/03/01 03:59:40;;;;;;;38.00;14.80;;;2.50;99.90;;;;;;4189548;28;20543;-73
2024/03/01 04:01:42;;;;;;;38.57;14.53;;;2.50;99.90;;;;;;4183634;28;20449;-75
2024/03/01 04:03:44;;;;;;;38.90;14.83;;;2.50;99.90;;;;;;4185319;28;20460;-76
2024/03/01 04:05:46;;;;;;;40.20;15.47;;;2.50;99.90;;;;;;4183460;28;20512;-76
2024/03/01 04:07:48;;;;;;;36.03;14.33;;;2.50;99.90;;;;;;4184176;28;20531;-75
2024/03/01 04:09:50;;;;;;;33.47;13.80;;;2.50;99.90;;;;;;4185425;28;20483;-74
2024/03/01 04:11:52;;;;;;;34.87;13.60;;;2.50;99.90;;;;;;4187354;28;20472;-74
2024/03/01 04:13:54;;;;;;;33.00;14.03;;;2.50;99.90;;;;;;4183102;28;20968;-74
2024/03/01 04:15:56;;;;;;;34.50;13.37;;;2.50;99.90;;;;;;4185249;28;20526;-75
2024/03/01 04:18:00;;;;;;;33.87;13.50;;;2.40;99.90;;;;;;4186019;28;20459;-75
2024/03/01 04:20:04;;;;;;;35.03;13.73;;;2.50;99.90;;;;;;4183662;28;21014;-76
2024/03/01 04:22:05;;;;;;;33.43;13.93;;;2.40;99.90;;;;;;4183895;28;20949;-75
2024/03/01 04:24:08;;;;;;;32.97;13.27;;;2.40;99.90;;;;;;4184881;28;20980;-76
2024/03/01 04:26:10;;;;;;;34.00;13.97;;;2.40;99.90;;;;;;4184333;28;20472;-75
2024/03/01 04:28:12;;;;;;;32.90;13.07;;;2.30;99.90;;;;;;4181983;28;20468;-73
2024/03/01 04:30:15;;;;;;;32.97;13.57;;;2.30;99.90;;;;;;4183085;28;20964;-77
2024/03/01 04:32:18;;;;;;;35.43;14.60;;;2.30;99.90;;;;;;4185203;28;21076;-74
2024/03/01 04:34:21;;;;;;;34.73;15.40;;;2.30;99.90;;;;;;4183726;28;20456;-76
2024/03/01 04:36:24;;;;;;;39.53;14.87;;;2.30;99.90;;;;;;4184700;28;20529;-74
2024/03/01 04:38:29;;;;;;;38.77;15.07;;;2.30;99.90;;;;;;4181447;28;20493;-76
2024/03/01 04:40:31;;;;;;;41.10;14.63;;;2.30;99.90;;;;;;4182005;28;20475;-74
2024/03/01 04:42:34;;;;;;;37.80;14.27;;;2.30;99.90;;;;;;4190087;28;20967;-73
2024/03/01 04:44:39;;;;;;;42.43;15.13;;;2.30;99.90;;;;;;4181659;28;20493;-78
2024/03/01 04:46:41;;;;;;;37.77;14.20;;;2.30;99.90;;;;;;4190103;28;20502;-73
2024/03/01 04:48:43;;;;;;;39.33;15.33;;;2.30;99.90;;;;;;4185903;28;20448;-73
2024/03/01 04:50:46;;;;;;;37.27;15.30;;;2.30;99.90;;;;;;4190818;28;20492;-73
2024/03/01 04:52:48;;;;;;;41.33;15.17;;;2.20;99.90;;;;;;4189493;28;20869;-74
2024/03/01 04:54:50;;;;;;;38.00;15.70;;;2.20;99.90;;;;;;4182642;28;20488;-74
2024/03/01 04:56:51;;;;;;;41.50;16.03;;;2.30;99.90;;;;;;4179064;28;20461;-74
2024/03/01 04:58:53;;;;;;;44.10;16.23;;;2.30;99.90;;;;;;4179966;28;20448;-80
2024/03/01 05:00:55;;;;;;;40.30;15.23;;;2.30;99.90;;;;;;4184819;28;20302;-76
2024/03/01 05:02:58;;;;;;;40.97;15.63;;;2.30;99.90;;;;;;4187102;28;20995;-73
2024/03/01 05:04:59;;;;;;;47.63;16.13;;;2.30;99.90;;;;;;4186006;28;20492;-73
2024/03/01 05:07:03;;;;;;;43.83;16.77;;;2.30;99.90;;;;;;4185950;28;20523;-73
2024/03/01 05:09:07;;;;;;;41.30;16.40;;;2.30;99.90;;;;;;4181106;28;20524;-75
2024/03/01 05:11:08;;;;;;;41.17;15.57;;;2.30;99.90;;;;;;4179462;28;20445;-76
2024/03/01 05:13:09;;;;;;;43.00;16.33;;;2.30;99.90;;;;;;4185024;28;20517;-74
2024/03/01 05:15:12;;;;;;;41.00;16.20;;;2.30;99.90;;;;;;4180552;28;20249;-76
2024/03/01 05:17:14;;;;;;;41.90;15.87;;;2.30;99.90;;;;;;4183848;28;20443;-74
2024/03/01 05:19:15;;;;;;;40.97;15.37;;;2.30;99.90;;;;;;4180468;28;20467;-74
2024/03/01 05:21:17;;;;;;;48.17;17.00;;;2.20;99.90;;;;;;4181146;28;20479;-73
2024/03/01 05:23:22;;;;;;;41.10;15.37;;;2.20;99.90;;;;;;4184670;28;20572;-75
2024/03/01 05:25:24;;;;;;;35.00;14.70;;;2.20;99.90;;;;;;4182309;28;20486;-73
2024/03/01 05:27:25;;;;;;;35.47;14.50;;;2.10;99.90;;;;;;4184509;28;20952;-73
2024/03/01 05:29:27;;;;;;;40.60;16.00;;;2.10;99.90;;;;;;4183932;28;20554;-75
2024/03/01 05:31:44;;;;;;;39.90;16.00;;;2.10;99.90;;;;;;4183197;28;20496;-75
2024/03/01 05:33:46;;;;;;;39.90;15.37;;;2.00;99.90;;;;;;4183748;28;20455;-73
2024/03/01 05:35:48;;;;;;;37.83;15.43;;;2.10;99.90;;;;;;4185433;28;20475;-74
2024/03/01 05:37:50;;;;;;;39.10;15.90;;;2.00;99.90;;;;;;4186132;28;20489;-74
2024/03/01 05:39:53;;;;;;;38.57;15.80;;;2.00;99.90;;;;;;4191112;28;20496;-74
2024/03/01 05:41:55;;;;;;;41.30;15.83;;;2.00;99.90;;;;;;4187376;28;20444;-75
2024/03/01 05:43:57;;;;;;;39.67;16.13;;;2.00;99.90;;;;;;4184219;28;20485;-75
2024/03/01 05:46:04;;;;;;;36.90;15.60;;;2.00;99.90;;;;;;4186518;28;20569;-73
2024/03/01 05:48:10;;;;;;;38.40;15.10;;;2.00;99.90;;;;;;4187614;28;21168;-74
2024/03/01 05:50:13;;;;;;;43.40;17.10;;;2.00;99.90;;;;;;4185811;28;21215;-75
2024/03/01 05:52:14;;;;;;;46.27;16.93;;;2.00;99.90;;;;;;4186190;28;20443;-73
2024/03/01 05:54:15;;;;;;;40.03;16.20;;;2.00;99.90;;;;;;4182168;28;20547;-74
2024/03/01 05:56:19;;;;;;;38.83;15.93;;;2.00;99.90;;;;;;4178776;28;20463;-73
2024/03/01 05:58:25;;;;;;;41.20;16.03;;;2.00;99.90;;;;;;4180640;28;20281;-74
2024/03/01 06:00:26;;;;;;;41.47;15.30;;;2.00;99.90;;;;;;4181152;28;20499;-73
2024/03/01 06:02:28;;;;;;;42.60;16.73;;;2.00;99.90;;;;;;4184345;28;20963;-73
2024/03/01 06:04:29;;;;;;;40.37;15.13;;;2.00;99.90;;;;;;4182513;28;20520;-73
2024/03/01 06:06:31;;;;;;;35.73;15.40;;;2.00;99.90;;;;;;4182517;28;20455;-74
2024/03/01 06:08:33;;;;;;;44.53;16.30;;;2.00;99.90;;;;;;4186469;28;20230;-75
2024/03/01 06:10:35;;;;;;;38.87;15.50;;;2.00;99.90;;;;;;4184205;28;20499;-75
2024/03/01 06:12:42;;;;;;;45.13;17.20;;;2.00;99.90;;;;;;4186750;28;21137;-74
2024/03/01 06:14:43;;;;;;;37.70;15.13;;;2.00;99.90;;;;;;4184172;28;20492;-75
2024/03/01 06:16:46;;;;;;;39.70;15.83;;;2.10;99.90;;;;;;4186439;28;20471;-72
2024/03/01 06:18:47;;;;;;;44.17;16.53;;;2.10;99.90;;;;;;4187533;28;20461;-72
2024/03/01 06:20:49;;;;;;;43.20;16.67;;;2.00;99.90;;;;;;4185243;28;20443;-78
2024/03/01 06:22:51;;;;;;;41.33;15.97;;;2.00;99.90;;;;;;4185500;28;20224;-79
2024/03/01 06:24:53;;;;;;;39.80;15.00;;;2.00;99.90;;;;;;4187115;28;20491;-71
2024/03/01 06:26:55;;;;;;;34.67;14.77;;;2.00;99.90;;;;;;4188538;28;20510;-77
2024/03/01 06:28:58;;;;;;;39.47;14.97;;;2.00;99.90;;;;;;4181465;28;20445;-75
2024/03/01 06:31:00;;;;;;;37.87;14.97;;;1.90;99.90;;;;;;4184964;28;20995;-71
2024/03/01 06:33:02;;;;;;;36.83;14.57;;;2.00;99.90;;;;;;4188318;28;20532;-72
2024/03/01 06:35:04;;;;;;;38.23;14.27;;;1.90;99.90;;;;;;4185848;28;20876;-74
2024/03/01 06:37:05;;;;;;;37.20;14.97;;;2.00;99.90;;;;;;4152668;28;21066;-72
2024/03/01 06:39:08;;;;;;;34.33;14.03;;;2.00;99.90;;;;;;4189504;28;20449;-72
2024/03/01 06:41:10;;;;;;;42.47;16.13;;;1.90;99.90;;;;;;4183992;28;20217;-72
2024/03/01 06:43:12;;;;;;;40.80;16.30;;;2.00;99.90;;;;;;4188469;28;20516;-72
2024/03/01 06:45:16;;;;;;;40.27;15.80;;;2.00;99.90;;;;;;4190608;28;20531;-72
2024/03/01 06:47:18;;;;;;;35.53;14.63;;;2.00;99.90;;;;;;4189762;28;20444;-72
2024/03/01 06:49:19;;;;;;;35.33;14.37;;;2.00;99.90;;;;;;4189709;28;20484;-71
2024/03/01 06:51:21;;;;;;;36.53;15.03;;;2.00;99.90;;;;;;4190960;28;20440;-70
2024/03/01 06:53:22;;;;;;;34.77;15.03;;;2.00;99.90;;;;;;4189036;28;20441;-71
2024/03/01 06:55:25;;;;;;;37.07;15.20;;;2.00;99.90;;;;;;4195420;28;20478;-71
2024/03/01 06:57:27;;;;;;;37.97;15.33;;;2.10;99.90;;;;;;4188743;28;21041;-71
2024/03/01 06:59:29;;;;;;;36.73;15.17;;;2.10;99.90;;;;;;4186469;28;20542;-71
2024/03/01 07:01:34;;;;;;;43.80;16.03;;;2.20;99.90;;;;;;4185794;28;20479;-72
2024/03/01 07:03:36;;;;;;;41.37;15.43;;;2.20;99.90;;;;;;4189562;28;20826;-71
2024/03/01 07:05:38;;;;;;;36.67;15.13;;;2.20;99.90;;;;;;4189230;28;20488;-72
2024/03/01 07:07:40;;;;;;;41.93;16.13;;;2.30;99.90;;;;;;4182209;28;20494;-72
2024/03/01 07:09:42;;;;;;;38.63;15.07;;;2.20;99.90;;;;;;4186437;28;20501;-71
2024/03/01 07:11:43;;;;;;;36.10;14.63;;;2.30;99.90;;;;;;4187070;28;21960;-72
2024/03/01 07:13:45;;;;;;;38.00;15.57;;;2.30;99.90;;;;;;4185417;28;20453;-72
2024/03/01 07:15:49;;;;;;;35.40;15.10;;;2.30;99.90;;;;;;4184559;28;20471;-72
2024/03/01 07:17:53;;;;;;;38.83;14.87;;;2.40;99.90;;;;;;4188615;28;20880;-72
2024/03/01 07:19:55;;;;;;;41.90;15.47;;;2.40;99.90;;;;;;4182056;28;21018;-75
2024/03/01 07:21:57;;;;;;;45.60;16.53;;;2.40;99.90;;;;;;4183332;28;20515;-73
2024/03/01 07:23:58;;;;;;;40.83;16.47;;;2.40;99.90;;;;;;4185065;28;20490;-71
2024/03/01 07:26:00;;;;;;;38.90;14.70;;;2.40;99.90;;;;;;4189005;28;20480;-71
2024/03/01 07:28:02;;;;;;;34.97;15.23;;;2.50;99.90;;;;;;4188083;28;20783;-71
2024/03/01 07:30:05;;;;;;;39.63;15.70;;;2.50;99.90;;;;;;4188554;28;20449;-71
2024/03/01 07:32:08;;;;;;;39.80;16.57;;;2.50;99.90;;;;;;4187520;28;20459;-70
2024/03/01 07:34:12;;;;;;;39.77;15.77;;;2.60;99.90;;;;;;4186709;28;20838;-75
2024/03/01 07:36:14;;;;;;;47.63;18.70;;;2.70;99.90;;;;;;4187702;28;20837;-71
2024/03/01 07:38:16;;;;;;;48.37;19.47;;;2.80;99.90;;;;;;4191590;28;20453;-71
2024/03/01 07:40:18;;;;;;;52.47;19.73;;;2.80;99.90;;;;;;4187511;28;20948;-73
2024/03/01 07:42:21;;;;;;;43.73;17.37;;;2.90;99.90;;;;;;4192163;28;20543;-73
2024/03/01 07:44:23;;;;;;;41.20;16.73;;;3.00;99.90;;;;;;4183010;28;20519;-71
2024/03/01 07:46:25;;;;;;;43.63;17.37;;;3.00;99.90;;;;;;4184481;28;20635;-71
2024/03/01 07:48:30;;;;;;;45.67;17.10;;;3.10;99.90;;;;;;4191510;28;20540;-71
2024/03/01 07:50:34;;;;;;;45.43;17.33;;;3.10;99.90;;;;;;4189377;28;20518;-74
2024/03/01 07:52:35;;;;;;;47.53;17.33;;;3.20;99.90;;;;;;4191976;28;20446;-74
2024/03/01 07:54:38;;;;;;;44.33;17.10;;;3.20;99.90;;;;;;4198295;28;20488;-72
2024/03/01 07:56:40;;;;;;;47.50;18.03;;;3.40;99.90;;;;;;4193888;28;20466;-72
2024/03/01 07:58:42;;;;;;;45.63;17.87;;;3.40;99.90;;;;;;4186637;28;20456;-72
2024/03/01 08:00:44;;;;;;;40.27;17.20;;;3.50;99.90;;;;;;4179138;28;20472;-72
2024/03/01 08:02:46;;;;;;;42.20;17.70;;;3.60;99.90;;;;;;4190943;28;20448;-73
2024/03/01 08:04:52;;;;;;;45.93;18.17;;;3.60;99.90;;;;;;4186884;28;20492;-73
2024/03/01 08:06:55;;;;;;;48.67;17.93;;;3.70;99.90;;;;;;4185482;28;20811;-73
2024/03/01 08:08:57;;;;;;;49.37;18.87;;;3.80;99.90;;;;;;4183761;28;20618;-75
2024/03/01 08:11:00;;;;;;;49.80;19.10;;;3.90;99.90;;;;;;4182508;28;20445;-75
2024/03/01 08:13:07;;;;;;;43.20;17.43;;;4.00;99.90;;;;;;4187469;28;20703;-76
2024/03/01 08:15:23;;;;;;;49.37;19.10;;;4.10;99.90;;;;;;4182088;28;20590;-73
2024/03/01 08:17:31;;;;;;;47.80;18.63;;;4.20;99.90;;;;;;4183615;28;20544;-73
2024/03/01 08:19:51;;;;;;;46.57;17.93;;;4.20;99.90;;;;;;4185088;28;20945;-73
2024/03/01 08:22:07;;;;;;;51.47;18.63;;;4.30;99.90;;;;;;4187230;28;20532;-73
2024/03/01 08:24:10;;;;;;;43.70;17.10;;;4.40;99.90;;;;;;4189798;28;20466;-72
2024/03/01 08:26:20;;;;;;;42.93;17.97;;;4.50;99.90;;;;;;4184924;28;20571;-72
2024/03/01 08:28:46;;;;;;;46.87;18.37;;;4.60;99.90;;;;;;4183706;28;20555;-77
2024/03/01 08:30:48;;;;;;;48.50;19.43;;;4.70;99.90;;;;;;4184115;28;20440;-73
2024/03/01 08:32:50;;;;;;;49.63;18.90;;;4.80;99.90;;;;;;4185047;28;20821;-72
2024/03/01 08:35:01;;;;;;;48.97;18.70;;;4.90;99.90;;;;;;4193687;28;20475;-74
2024/03/01 08:37:06;;;;;;;61.37;23.47;;;4.90;99.90;;;;;;4178924;28;20459;-73
2024/03/01 08:39:15;;;;;;;46.33;18.67;;;5.00;99.90;;;;;;4185852;28;20485;-75
2024/03/01 08:41:19;;;;;;;46.07;18.33;;;5.10;99.90;;;;;;4182059;28;20459;-72
2024/03/01 08:43:25;;;;;;;45.20;18.33;;;5.20;99.90;;;;;;4182940;28;20445;-75
2024/03/01 08:45:42;;;;;;;47.17;18.77;;;5.20;99.90;;;;;;4184336;28;20486;-71
2024/03/01 08:48:01;;;;;;;42.93;18.20;;;5.30;99.90;;;;;;4185021;28;20500;-71
2024/03/01 08:50:37;;;;;;;42.67;19.10;;;5.40;99.90;;;;;;4184541;28;20468;-74
2024/03/01 08:52:42;;;;;;;43.63;17.93;;;5.50;99.90;;;;;;4183172;28;20501;-74
2024/03/01 08:54:44;;;;;;;45.40;18.97;;;5.60;99.90;;;;;;4185616;28;20467;-74
2024/03/01 08:57:05;;;;;;;45.43;17.90;;;5.70;99.90;;;;;;4183026;28;20444;-73
2024/03/01 08:59:32;;;;;;;45.90;19.10;;;5.80;99.90;;;;;;4186150;28;20471;-73
2024/03/01 09:01:49;;;;;;;45.33;18.37;;;5.90;99.90;;;;;;4199036;28;20985;-76
2024/03/01 09:03:54;;;;;;;43.57;17.57;;;5.90;99.90;;;;;;4181917;28;20471;-73
2024/03/01 09:06:00;;;;;;;44.83;17.73;;;6.10;99.90;;;;;;4182678;28;20832;-75
2024/03/01 09:08:03;;;;;;;40.47;17.40;;;6.10;99.90;;;;;;4181553;28;20544;-75
2024/03/01 09:10:16;;;;;;;43.83;18.43;;;6.20;99.90;;;;;;4181307;28;20456;-73
2024/03/01 09:12:24;;;;;;;44.87;17.43;;;6.30;99.90;;;;;;4189173;28;21110;-73
2024/03/01 09:14:30;;;;;;;46.10;17.87;;;6.30;99.90;;;;;;4182828;28;20448;-75
2024/03/01 09:16:33;;;;;;;45.50;18.03;;;6.40;99.90;;;;;;4181891;28;20454;-74
2024/03/01 09:18:49;;;;;;;42.37;18.93;;;6.50;99.90;;;;;;4178252;28;20487;-72
2024/03/01 09:20:51;;;;;;;47.27;17.93;;;6.60;99.90;;;;;;4183672;28;20467;-72
2024/03/01 09:22:55;;;;;;;43.50;17.47;;;6.70;99.90;;;;;;4183771;28;20913;-74
2024/03/01 09:24:59;;;;;;;43.97;18.17;;;6.80;99.90;;;;;;4179253;28;20248;-73
2024/03/01 09:27:03;;;;;;;41.20;17.63;;;6.80;99.90;;;;;;4179716;28;20217;-77
2024/03/01 09:29:06;;;;;;;40.67;17.73;;;6.90;99.90;;;;;;4182235;28;20194;-73
2024/03/01 09:31:12;;;;;;;44.00;17.27;;;7.00;99.90;;;;;;4183727;28;20222;-76
2024/03/01 09:33:16;;;;;;;40.90;16.57;;;7.10;99.90;;;;;;4187173;28;20670;-76
2024/03/01 09:35:34;;;;;;;40.77;17.03;;;7.20;99.90;;;;;;4183595;28;20592;-75
2024/03/01 09:37:36;;;;;;;42.80;17.87;;;7.30;99.90;;;;;;4184458;28;20212;-74
2024/03/01 09:39:38;;;;;;;37.83;16.70;;;7.30;99.90;;;;;;4182268;28;20210;-75
2024/03/01 09:42:04;;;;;;;42.97;18.30;;;7.50;99.90;;;;;;4184604;28;20210;-73
2024/03/01 09:44:17;;;;;;;40.43;16.50;;;7.50;99.90;;;;;;4187139;28;20190;-75
2024/03/01 09:46:27;;;;;;;40.40;17.90;;;7.60;99.90;;;;;;4187576;28;20220;-74
2024/03/01 09:48:43;;;;;;;43.60;16.67;;;7.60;99.90;;;;;;4183278;28;20822;-76
2024/03/01 09:51:05;;;;;;;45.43;17.13;;;7.70;99.90;;;;;;4192020;28;20205;-80
2024/03/01 09:53:20;;;;;;;36.87;16.13;;;7.80;99.90;;;;;;4188548;28;20291;-74
2024/03/01 09:55:37;;;;;;;40.70;17.27;;;7.80;99.90;;;;;;4184623;28;20228;-76
2024/03/01 09:57:58;;;;;;;35.40;16.47;;;7.90;99.90;;;;;;4184882;28;20211;-74
2024/03/01 10:00:09;;;;;;;39.73;15.83;;;8.00;99.90;;;;;;4186278;28;20572;-74
2024/03/01 10:02:26;;;;;;;38.70;17.03;;;8.10;99.90;;;;;;4189902;28;20790;-73
2024/03/01 10:04:41;;;;;;;35.13;16.10;;;8.20;99.90;;;;;;4186845;28;20214;-76
2024/03/01 10:07:15;;;;;;;37.97;16.77;;;8.20;99.90;;;;;;4195558;28;20278;-76
2024/03/01 10:09:31;;;;;;;38.20;16.50;;;8.40;99.90;;;;;;4190447;28;20240;-73
2024/03/01 10:11:49;;;;;;;37.93;17.40;;;8.50;99.90;;;;;;4191427;28;20208;-74
2024/03/01 10:14:02;;;;;;;40.20;17.13;;;8.50;99.90;;;;;;4195213;28;20206;-73
2024/03/01 10:16:20;;;;;;;39.27;17.10;;;8.60;99.90;;;;;;4196230;28;20225;-76
2024/03/01 10:18:50;;;;;;;36.87;16.10;;;8.70;99.90;;;;;;4189979;28;20566;-74
2024/03/01 10:21:03;;;;;;;39.60;17.63;;;8.80;99.90;;;;;;4187132;28;20212;-76
2024/03/01 10:23:34;;;;;;;33.07;15.20;;;8.90;99.90;;;;;;4188336;28;20661;-77
2024/03/01 10:25:51;;;;;;;38.67;17.23;;;9.00;99.90;;;;;;4203915;28;20727;-77
2024/03/01 10:28:04;;;;;;;34.47;16.00;;;9.00;99.90;;;;;;4190883;28;20194;-79
2024/03/01 10:30:16;;;;;;;40.20;16.67;;;9.10;99.90;;;;;;4195606;28;20298;-78
2024/03/01 10:32:30;;;;;;;34.93;16.17;;;9.10;99.90;;;;;;4192849;28;20227;-75
2024/03/01 10:34:45;;;;;;;34.67;16.03;;;9.20;99.90;;;;;;4187330;28;20309;-77
2024/03/01 10:36:53;;;;;;;39.13;16.33;;;9.30;99.90;;;;;;4187844;28;20192;-76
2024/03/01 10:39:04;;;;;;;36.13;15.63;;;9.30;99.90;;;;;;4185041;28;20204;-76